Time;durP1;ratioP1;P1;durP2;ratioP2;P2;SDS_P1;SDS_P2;PMS_P1;PMS_P2;Temp;Humidity;BMP_temperature;BMP_pressure;BME280_temperature;BME280_humidity;BME280_pressure;Samples;Min_cycle;Max_cycle;Signal;HPM_P1;HPM_P2
2023/09/06 00:00:52;;;;;;;4.73;4.40;;;15.80;99.90;;;;;;5061017;28;20206;-83
2023/09/06 00:03:19;;;;;;;3.87;3.63;;;15.80;99.90;;;;;;5061704;28;20588;-82
2023/09/06 00:05:45;;;;;;;4.27;3.97;;;15.80;99.90;;;;;;5062096;28;20215;-79
2023/09/06 00:08:13;;;;;;;4.17;3.80;;;15.80;99.90;;;;;;5059354;28;20206;-79
2023/09/06 00:10:42;;;;;;;4.73;4.17;;;15.80;99.90;;;;;;5058811;28;20543;-82
2023/09/06 00:13:11;;;;;;;3.97;3.77;;;15.80;99.90;;;;;;5058316;28;20186;-79
2023/09/06 00:15:37;;;;;;;4.17;3.90;;;15.80;99.90;;;;;;5041888;28;20188;-77
2023/09/06 00:18:07;;;;;;;5.67;4.20;;;15.80;99.90;;;;;;5059887;28;20224;-85
2023/09/06 00:20:34;;;;;;;4.90;4.40;;;15.70;99.90;;;;;;5054701;28;20233;-86
2023/09/06 00:23:04;;;;;;;4.77;4.37;;;15.70;99.90;;;;;;5066077;28;20172;-81
2023/09/06 00:25:32;;;;;;;4.40;4.10;;;15.70;99.90;;;;;;5066795;28;20187;-84
2023/09/06 00:28:00;;;;;;;4.70;4.30;;;15.80;99.90;;;;;;5067691;28;20192;-85
2023/09/06 00:30:26;;;;;;;4.37;3.87;;;15.70;99.90;;;;;;5057949;28;20174;-84
2023/09/06 00:32:52;;;;;;;4.50;4.20;;;15.70;99.90;;;;;;5059146;28;20237;-84
2023/09/06 00:35:20;;;;;;;4.30;4.00;;;15.60;99.90;;;;;;5058382;28;20176;-84
2023/09/06 00:37:45;;;;;;;5.60;4.73;;;15.50;99.90;;;;;;5061857;28;20179;-85
2023/09/06 00:40:17;;;;;;;5.93;4.13;;;15.60;99.90;;;;;;5058501;28;20332;-86
2023/09/06 00:43:03;;;;;;;4.57;4.27;;;15.60;99.90;;;;;;5057630;28;20161;-85
2023/09/06 00:45:36;;;;;;;3.97;3.77;;;15.60;99.90;;;;;;5060397;28;20271;-85
2023/09/06 00:48:04;;;;;;;4.33;4.00;;;15.60;99.90;;;;;;5068111;28;20488;-82
2023/09/06 00:50:29;;;;;;;4.33;4.00;;;15.50;99.90;;;;;;5059211;28;20164;-83
2023/09/06 00:52:56;;;;;;;4.53;4.23;;;15.50;99.90;;;;;;5061499;28;20678;-83
2023/09/06 00:55:22;;;;;;;4.80;4.40;;;15.50;99.90;;;;;;5057377;28;20639;-84
2023/09/06 00:57:48;;;;;;;4.97;4.47;;;15.40;99.90;;;;;;5057034;28;20374;-84
2023/09/06 01:00:23;;;;;;;4.17;3.83;;;15.40;99.90;;;;;;5057350;28;20240;-83
2023/09/06 01:02:49;;;;;;;4.80;4.50;;;15.40;99.90;;;;;;5057534;28;20174;-83
2023/09/06 01:05:16;;;;;;;6.17;4.10;;;15.30;99.90;;;;;;5055528;28;20175;-81
2023/09/06 01:07:46;;;;;;;5.37;4.50;;;15.40;99.90;;;;;;5057680;28;20175;-82
2023/09/06 01:10:12;;;;;;;4.40;4.10;;;15.30;99.90;;;;;;5055246;28;20175;-82
2023/09/06 01:12:38;;;;;;;4.87;4.43;;;15.40;99.90;;;;;;5056992;28;20180;-84
2023/09/06 01:15:04;;;;;;;6.77;4.27;;;15.40;99.90;;;;;;5055375;28;20256;-81
2023/09/06 01:17:34;;;;;;;4.50;4.20;;;15.30;99.90;;;;;;5056914;28;20179;-82
2023/09/06 01:20:42;;;;;;;4.80;4.40;;;15.30;99.90;;;;;;5056660;28;20222;-83
2023/09/06 01:23:34;;;;;;;4.27;3.97;;;15.30;99.90;;;;;;5034902;28;20722;-84
2023/09/06 01:26:00;;;;;;;4.10;3.80;;;15.20;99.90;;;;;;5036154;28;20232;-83
2023/09/06 01:28:27;;;;;;;4.60;4.30;;;15.20;99.90;;;;;;5035714;28;20181;-85
2023/09/06 01:30:56;;;;;;;4.90;4.53;;;15.10;99.90;;;;;;5035400;28;20189;-86
2023/09/06 01:33:22;;;;;;;4.40;4.10;;;15.20;99.90;;;;;;5041038;28;20170;-83
2023/09/06 01:35:51;;;;;;;4.50;4.20;;;15.30;99.90;;;;;;5028621;28;20176;-83
2023/09/06 01:38:17;;;;;;;4.60;4.30;;;15.30;99.90;;;;;;5039017;28;20238;-83
2023/09/06 01:40:44;;;;;;;4.10;3.80;;;15.40;99.90;;;;;;5036208;28;20183;-84
2023/09/06 01:43:09;;;;;;;4.90;4.50;;;15.40;99.90;;;;;;5035135;28;20208;-85
2023/09/06 01:45:43;;;;;;;5.00;4.50;;;15.40;99.90;;;;;;5034780;28;20673;-85
2023/09/06 01:48:08;;;;;;;4.67;4.27;;;15.40;99.90;;;;;;5034092;28;20189;-81
2023/09/06 01:50:34;;;;;;;4.87;4.50;;;15.30;99.90;;;;;;5034197;28;20560;-79
2023/09/06 01:53:00;;;;;;;4.90;4.60;;;15.30;99.90;;;;;;5037324;28;20189;-80
2023/09/06 01:55:26;;;;;;;5.57;4.30;;;15.30;99.90;;;;;;5055720;28;20176;-84
2023/09/06 01:57:52;;;;;;;5.57;4.43;;;15.30;99.90;;;;;;5059718;28;20537;-79
2023/09/06 02:00:26;;;;;;;4.30;4.10;;;15.30;99.90;;;;;;5064192;28;20165;-79
2023/09/06 02:02:52;;;;;;;5.03;4.63;;;15.30;99.90;;;;;;5055991;28;20203;-84
2023/09/06 02:05:18;;;;;;;4.73;4.33;;;15.30;99.90;;;;;;5054908;28;20233;-85
2023/09/06 02:07:45;;;;;;;4.20;3.90;;;15.30;99.90;;;;;;5072205;28;20180;-85
2023/09/06 02:10:10;;;;;;;4.97;4.53;;;15.40;99.90;;;;;;5056152;28;20640;-84
2023/09/06 02:12:39;;;;;;;5.00;4.60;;;15.30;99.90;;;;;;5055801;28;20263;-84
2023/09/06 02:15:07;;;;;;;5.10;4.60;;;15.30;99.90;;;;;;5055599;28;20184;-85
2023/09/06 02:17:34;;;;;;;4.93;4.53;;;15.20;99.90;;;;;;5055708;28;20176;-85
2023/09/06 02:20:17;;;;;;;4.47;4.17;;;15.20;99.90;;;;;;5056994;28;20207;-84
2023/09/06 02:22:52;;;;;;;4.60;4.30;;;15.20;99.90;;;;;;5065341;28;20187;-83
2023/09/06 02:25:21;;;;;;;5.00;4.60;;;15.10;99.90;;;;;;5056543;28;20156;-84
2023/09/06 02:27:48;;;;;;;5.30;4.80;;;15.10;99.90;;;;;;5055896;28;20168;-83
2023/09/06 02:30:14;;;;;;;5.13;4.50;;;15.10;99.90;;;;;;5055839;28;20665;-84
2023/09/06 02:32:40;;;;;;;4.90;4.50;;;15.10;99.90;;;;;;5055378;28;20231;-82
2023/09/06 02:35:07;;;;;;;5.00;4.60;;;15.10;99.90;;;;;;5054800;28;20184;-86
2023/09/06 02:37:36;;;;;;;5.00;4.57;;;15.10;99.90;;;;;;5054040;28;20222;-86
2023/09/06 02:40:07;;;;;;;4.90;4.40;;;15.10;99.90;;;;;;5055698;28;20345;-86
2023/09/06 02:42:36;;;;;;;4.80;4.43;;;15.00;99.90;;;;;;5054253;28;20176;-83
2023/09/06 02:45:04;;;;;;;5.00;4.60;;;15.00;99.90;;;;;;5054922;28;20175;-85
2023/09/06 02:47:30;;;;;;;4.60;4.20;;;15.00;99.90;;;;;;5055268;28;20178;-83
2023/09/06 02:49:56;;;;;;;5.03;4.63;;;15.00;99.90;;;;;;5054846;28;20172;-84
2023/09/06 02:52:30;;;;;;;5.50;5.10;;;15.00;99.90;;;;;;5053513;28;20279;-84
2023/09/06 02:55:03;;;;;;;5.23;4.70;;;15.00;99.90;;;;;;5053260;28;20183;-83
2023/09/06 02:57:30;;;;;;;5.03;4.63;;;14.90;99.90;;;;;;5053408;28;20503;-85
2023/09/06 02:59:55;;;;;;;5.53;4.87;;;14.90;99.90;;;;;;5054094;28;20249;-84
2023/09/06 03:02:21;;;;;;;5.10;4.70;;;14.90;99.90;;;;;;5055089;28;20175;-85
2023/09/06 03:04:51;;;;;;;5.17;4.43;;;14.90;99.90;;;;;;5055362;28;20176;-83
2023/09/06 03:07:19;;;;;;;5.30;4.90;;;14.90;99.90;;;;;;5054636;28;20168;-84
2023/09/06 03:09:44;;;;;;;5.43;4.93;;;14.90;99.90;;;;;;5054241;28;20176;-84
2023/09/06 03:12:14;;;;;;;5.17;4.77;;;14.90;99.90;;;;;;5054242;28;20172;-82
2023/09/06 03:14:44;;;;;;;7.97;5.27;;;14.90;99.90;;;;;;5054664;28;20179;-84
2023/09/06 03:17:11;;;;;;;4.70;4.40;;;15.00;99.90;;;;;;5054734;28;20164;-85
2023/09/06 03:19:41;;;;;;;4.97;4.57;;;14.90;99.90;;;;;;5054424;28;20257;-85
2023/09/06 03:22:12;;;;;;;5.37;4.87;;;14.90;99.90;;;;;;5058552;28;20179;-85
2023/09/06 03:24:40;;;;;;;4.97;4.57;;;14.90;99.90;;;;;;5060913;28;20156;-83
2023/09/06 03:27:08;;;;;;;5.47;5.00;;;14.80;99.90;;;;;;5059601;28;20247;-85
2023/09/06 03:29:38;;;;;;;5.03;4.50;;;14.90;99.90;;;;;;5059429;28;20179;-84
2023/09/06 03:32:10;;;;;;;5.90;4.83;;;14.80;99.90;;;;;;5061407;28;20248;-81
2023/09/06 03:34:37;;;;;;;5.57;5.07;;;14.90;99.90;;;;;;5057931;28;20176;-81
2023/09/06 03:37:08;;;;;;;5.63;5.00;;;14.80;99.90;;;;;;5055909;28;20175;-81
2023/09/06 03:39:37;;;;;;;5.83;5.23;;;14.70;99.90;;;;;;5057789;28;20215;-79
2023/09/06 03:42:08;;;;;;;6.30;5.20;;;14.70;99.90;;;;;;5075109;28;20160;-80
2023/09/06 03:44:37;;;;;;;4.97;4.57;;;14.80;99.90;;;;;;5057481;28;20267;-80
2023/09/06 03:47:06;;;;;;;5.30;4.67;;;14.80;99.90;;;;;;5055190;28;20646;-80
2023/09/06 03:49:35;;;;;;;5.50;5.00;;;14.80;99.90;;;;;;5077476;28;20157;-84
2023/09/06 03:52:04;;;;;;;6.60;5.23;;;14.90;99.90;;;;;;5077219;28;20179;-81
2023/09/06 03:54:30;;;;;;;5.87;4.87;;;14.90;99.90;;;;;;5077016;28;20182;-84
2023/09/06 03:56:56;;;;;;;5.93;5.33;;;14.90;99.90;;;;;;5081129;28;20195;-79
2023/09/06 03:59:21;;;;;;;5.47;4.97;;;14.90;99.90;;;;;;5081912;28;20207;-82
2023/09/06 04:01:49;;;;;;;5.40;5.00;;;14.90;99.90;;;;;;5081844;28;20164;-81
2023/09/06 04:04:14;;;;;;;6.03;5.37;;;14.80;99.90;;;;;;5081445;28;20190;-82
2023/09/06 04:06:43;;;;;;;5.33;4.90;;;14.80;99.90;;;;;;5081927;28;20215;-80
2023/09/06 04:09:13;;;;;;;5.67;5.10;;;14.80;99.90;;;;;;5081490;28;20166;-82
2023/09/06 04:11:41;;;;;;;5.37;4.67;;;14.80;99.90;;;;;;5080001;28;20177;-79
2023/09/06 04:14:10;;;;;;;5.87;5.33;;;14.60;99.90;;;;;;5081402;28;20227;-82
2023/09/06 04:16:37;;;;;;;5.53;5.00;;;14.70;99.90;;;;;;5078254;28;20184;-82
2023/09/06 04:19:06;;;;;;;6.37;5.80;;;14.60;99.90;;;;;;5072871;28;20318;-84
2023/09/06 04:21:32;;;;;;;7.13;5.27;;;14.60;99.90;;;;;;5072316;28;20195;-82
2023/09/06 04:23:58;;;;;;;7.30;5.30;;;14.60;99.90;;;;;;5063132;28;20172;-82
2023/09/06 04:26:25;;;;;;;5.33;4.83;;;14.60;99.90;;;;;;5059492;28;20179;-84
2023/09/06 04:28:50;;;;;;;7.83;5.37;;;14.70;99.90;;;;;;5071809;28;20180;-83
2023/09/06 04:31:17;;;;;;;5.57;5.07;;;14.70;99.90;;;;;;5058924;28;20184;-85
2023/09/06 04:33:44;;;;;;;5.87;5.27;;;14.70;99.90;;;;;;5078096;28;20168;-83
2023/09/06 04:36:10;;;;;;;5.73;5.23;;;14.70;99.90;;;;;;5057422;28;20160;-81
2023/09/06 04:38:36;;;;;;;6.67;5.20;;;14.70;99.90;;;;;;5057341;28;20280;-85
2023/09/06 04:41:02;;;;;;;5.30;4.83;;;14.60;99.90;;;;;;5056827;28;20238;-84
2023/09/06 04:43:28;;;;;;;6.00;5.20;;;14.70;99.90;;;;;;5060577;28;20164;-83
2023/09/06 04:45:54;;;;;;;7.53;5.00;;;14.70;99.90;;;;;;5058269;28;20180;-84
2023/09/06 04:48:23;;;;;;;5.97;5.20;;;14.60;99.90;;;;;;5057380;28;20246;-81
2023/09/06 04:50:49;;;;;;;5.50;5.00;;;14.60;99.90;;;;;;5065414;28;20182;-82
2023/09/06 04:53:17;;;;;;;5.67;5.10;;;14.60;99.90;;;;;;5062234;28;20717;-82
2023/09/06 04:55:44;;;;;;;6.13;5.47;;;14.50;99.90;;;;;;5055170;28;20223;-80
2023/09/06 04:58:11;;;;;;;5.37;4.87;;;14.50;99.90;;;;;;5056387;28;20257;-83
2023/09/06 05:00:41;;;;;;;6.10;5.50;;;14.50;99.90;;;;;;5056196;28;20222;-80
2023/09/06 05:03:13;;;;;;;5.47;4.97;;;14.60;99.90;;;;;;5055959;28;20264;-84
2023/09/06 05:05:40;;;;;;;5.27;4.63;;;14.60;99.90;;;;;;5056067;28;20200;-82
2023/09/06 05:08:06;;;;;;;6.37;5.43;;;14.60;99.90;;;;;;5054339;28;20217;-82
2023/09/06 05:10:32;;;;;;;5.57;5.07;;;14.60;99.90;;;;;;5056402;28;20179;-81
2023/09/06 05:12:58;;;;;;;5.40;5.00;;;14.60;99.90;;;;;;5056404;28;20262;-82
2023/09/06 05:15:24;;;;;;;6.67;5.17;;;14.60;99.90;;;;;;5055992;28;20179;-82
2023/09/06 05:17:50;;;;;;;5.40;4.90;;;14.60;99.90;;;;;;5056788;28;20172;-83
2023/09/06 05:20:30;;;;;;;5.83;5.30;;;14.70;99.90;;;;;;5056321;28;20542;-80
2023/09/06 05:22:57;;;;;;;5.23;4.73;;;14.70;99.90;;;;;;5056234;28;20181;-80
2023/09/06 05:25:24;;;;;;;5.40;5.00;;;14.80;99.90;;;;;;5056429;28;20526;-82
2023/09/06 05:27:51;;;;;;;6.17;4.90;;;14.80;99.90;;;;;;5056646;28;20176;-80
2023/09/06 05:30:17;;;;;;;5.83;5.03;;;14.90;99.90;;;;;;5059404;28;20651;-84
2023/09/06 05:32:43;;;;;;;5.20;4.80;;;14.90;99.90;;;;;;5059950;28;20180;-82
2023/09/06 05:35:09;;;;;;;6.70;5.10;;;15.00;99.90;;;;;;5057394;28;20203;-84
2023/09/06 05:37:35;;;;;;;5.43;5.03;;;15.00;99.90;;;;;;5058032;28;20172;-83
2023/09/06 05:40:04;;;;;;;6.67;5.30;;;15.00;99.90;;;;;;5056620;28;20234;-85
2023/09/06 05:42:30;;;;;;;6.17;5.10;;;15.00;99.90;;;;;;5060994;28;20182;-85
2023/09/06 05:44:57;;;;;;;5.63;5.13;;;15.10;99.90;;;;;;5063057;28;20630;-82
2023/09/06 05:47:22;;;;;;;5.30;4.90;;;15.10;99.90;;;;;;5079082;28;20194;-84
2023/09/06 05:49:52;;;;;;;5.37;4.87;;;15.10;99.90;;;;;;5079448;28;20163;-81
2023/09/06 05:52:18;;;;;;;7.17;5.10;;;15.20;99.90;;;;;;5070903;28;20231;-82
2023/09/06 05:54:48;;;;;;;5.20;4.70;;;15.30;99.90;;;;;;5073150;28;20176;-83
2023/09/06 05:57:14;;;;;;;7.20;5.00;;;15.30;99.90;;;;;;5077316;28;20159;-83
2023/09/06 05:59:40;;;;;;;6.13;5.23;;;15.40;99.90;;;;;;5077398;28;20199;-81
2023/09/06 06:02:07;;;;;;;6.90;5.10;;;15.40;99.90;;;;;;5074153;28;20181;-84
2023/09/06 06:04:32;;;;;;;5.13;4.63;;;15.50;99.90;;;;;;5059046;28;20699;-84
2023/09/06 06:06:58;;;;;;;6.73;4.93;;;15.50;99.90;;;;;;5063284;28;20168;-80
2023/09/06 06:09:25;;;;;;;8.23;5.00;;;15.60;99.90;;;;;;5056735;28;20180;-84
2023/09/06 06:11:55;;;;;;;5.80;5.30;;;15.70;99.90;;;;;;5055896;28;20171;-83
2023/09/06 06:14:23;;;;;;;4.90;4.47;;;15.70;99.90;;;;;;5064594;28;20172;-79
2023/09/06 06:16:49;;;;;;;5.20;4.73;;;15.80;99.90;;;;;;5067915;28;20178;-80
2023/09/06 06:19:14;;;;;;;5.10;4.70;;;15.80;99.90;;;;;;5053919;28;20244;-83
2023/09/06 06:21:40;;;;;;;5.07;4.67;;;15.90;99.90;;;;;;5055789;28;20184;-80
2023/09/06 06:24:09;;;;;;;5.00;4.60;;;15.90;99.90;;;;;;5054733;28;20174;-79
2023/09/06 06:26:35;;;;;;;6.83;4.93;;;15.90;99.90;;;;;;5054608;28;20178;-78
2023/09/06 06:29:01;;;;;;;5.47;4.80;;;16.00;99.90;;;;;;5055095;28;20180;-85
2023/09/06 06:31:28;;;;;;;6.07;4.50;;;16.00;99.90;;;;;;5055060;28;20169;-84
2023/09/06 06:33:54;;;;;;;6.07;4.67;;;16.10;99.90;;;;;;5055508;28;20179;-85
2023/09/06 06:36:21;;;;;;;5.00;4.23;;;16.20;99.90;;;;;;5056041;28;20164;-85
2023/09/06 06:38:47;;;;;;;4.93;4.53;;;16.20;99.90;;;;;;5055456;28;20304;-86
2023/09/06 06:41:22;;;;;;;5.47;4.87;;;16.30;99.90;;;;;;5054877;28;20215;-82
2023/09/06 06:43:49;;;;;;;4.87;4.47;;;16.40;99.90;;;;;;5055035;28;20619;-82
2023/09/06 06:46:33;;;;;;;5.37;4.90;;;16.50;99.90;;;;;;5074113;28;20169;-83
2023/09/06 06:49:00;;;;;;;6.17;4.60;;;16.60;99.90;;;;;;5057748;28;20164;-85
2023/09/06 06:51:26;;;;;;;4.50;4.10;;;16.70;99.90;;;;;;5054955;28;20221;-85
2023/09/06 06:53:52;;;;;;;9.90;4.70;;;16.70;99.90;;;;;;5054506;28;20207;-84
2023/09/06 06:56:21;;;;;;;4.90;4.50;;;16.70;99.90;;;;;;5054639;28;20202;-83
2023/09/06 06:58:50;;;;;;;6.40;4.70;;;16.70;99.90;;;;;;5054346;28;20248;-83
2023/09/06 07:01:16;;;;;;;4.80;4.40;;;16.80;99.90;;;;;;5055194;28;20171;-85
2023/09/06 07:03:42;;;;;;;9.37;5.13;;;16.90;99.90;;;;;;5055135;28;20178;-86
2023/09/06 07:06:09;;;;;;;6.47;4.30;;;17.00;99.90;;;;;;5054788;28;20171;-83
2023/09/06 07:08:38;;;;;;;4.73;4.33;;;17.10;99.90;;;;;;5054547;28;20254;-84
2023/09/06 07:11:04;;;;;;;4.67;4.27;;;17.10;99.90;;;;;;5053964;28;20642;-83
2023/09/06 07:13:31;;;;;;;4.83;4.43;;;17.20;99.90;;;;;;5052709;28;20175;-84
2023/09/06 07:15:56;;;;;;;5.53;4.10;;;17.30;99.90;;;;;;5052754;28;20187;-86
2023/09/06 07:18:22;;;;;;;4.40;4.00;;;17.40;99.90;;;;;;5054142;28;20586;-85
2023/09/06 07:20:48;;;;;;;6.33;4.03;;;17.40;99.90;;;;;;5053924;28;20202;-84
2023/09/06 07:23:14;;;;;;;5.60;4.20;;;17.50;99.90;;;;;;5054831;28;20176;-84
2023/09/06 07:25:44;;;;;;;4.20;3.90;;;17.60;99.90;;;;;;5058232;28;20176;-84
2023/09/06 07:28:10;;;;;;;4.60;4.20;;;17.70;99.90;;;;;;5057467;28;20167;-85
2023/09/06 07:30:36;;;;;;;4.33;4.00;;;17.80;99.90;;;;;;5066073;28;20172;-83
2023/09/06 07:33:02;;;;;;;5.00;4.60;;;17.90;99.90;;;;;;5071125;28;20182;-84
2023/09/06 07:35:27;;;;;;;4.33;3.90;;;17.90;99.90;;;;;;5076922;28;20182;-78
2023/09/06 07:37:54;;;;;;;6.10;4.80;;;18.00;99.90;;;;;;5077999;28;20193;-79
2023/09/06 07:40:20;;;;;;;4.43;4.03;;;18.10;99.90;;;;;;5077257;28;20223;-82
2023/09/06 07:42:46;;;;;;;4.30;3.90;;;18.20;99.90;;;;;;5065567;28;20535;-84
2023/09/06 07:45:12;;;;;;;5.73;4.10;;;18.30;99.90;;;;;;5054475;28;20194;-82
2023/09/06 07:47:38;;;;;;;5.03;4.47;;;18.50;99.90;;;;;;5053784;28;20545;-80
2023/09/06 07:50:05;;;;;;;7.00;3.90;;;18.50;99.90;;;;;;5053936;28;20258;-82
2023/09/06 07:52:30;;;;;;;4.30;4.00;;;18.60;99.90;;;;;;5057954;28;20176;-84
2023/09/06 07:54:58;;;;;;;4.20;3.83;;;18.70;99.90;;;;;;5053638;28;20224;-86
2023/09/06 07:57:24;;;;;;;3.70;3.40;;;18.80;99.90;;;;;;5052085;28;20516;-84
2023/09/06 07:59:50;;;;;;;4.37;3.97;;;18.90;99.90;;;;;;5053781;28;20329;-84
2023/09/06 08:02:15;;;;;;;3.90;3.60;;;18.90;99.90;;;;;;5053382;28;20199;-82
2023/09/06 08:04:41;;;;;;;4.60;4.20;;;19.00;99.90;;;;;;5053555;28;20200;-81
2023/09/06 08:07:08;;;;;;;4.17;3.87;;;19.00;99.90;;;;;;5054752;28;20172;-85
2023/09/06 08:09:35;;;;;;;3.77;3.47;;;19.10;99.90;;;;;;5054864;28;20571;-83
2023/09/06 08:12:03;;;;;;;5.53;4.03;;;19.10;99.90;;;;;;5053760;28;20168;-86
2023/09/06 08:14:30;;;;;;;4.17;3.83;;;19.20;99.90;;;;;;5053930;28;20698;-82
2023/09/06 08:16:56;;;;;;;4.63;4.10;;;19.30;99.90;;;;;;5054033;28;20570;-83
2023/09/06 08:19:21;;;;;;;3.63;3.43;;;19.40;99.90;;;;;;5053813;28;20215;-79
2023/09/06 08:21:47;;;;;;;4.20;3.90;;;19.50;99.90;;;;;;5052810;28;20646;-85
2023/09/06 08:24:13;;;;;;;6.60;3.80;;;19.60;99.90;;;;;;5053638;28;20175;-77
2023/09/06 08:26:39;;;;;;;4.03;3.73;;;19.60;99.90;;;;;;5053753;28;20520;-81
2023/09/06 08:29:05;;;;;;;4.30;3.67;;;19.80;99.90;;;;;;5054133;28;20249;-83
2023/09/06 08:31:32;;;;;;;4.03;3.63;;;19.80;99.90;;;;;;5053768;28;20238;-80
2023/09/06 08:33:58;;;;;;;3.93;3.63;;;20.00;99.90;;;;;;5054369;28;20533;-82
2023/09/06 08:36:24;;;;;;;3.87;3.47;;;19.90;99.90;;;;;;5053629;28;20176;-83
2023/09/06 08:38:49;;;;;;;5.53;3.53;;;19.90;99.90;;;;;;5057685;28;20231;-77
2023/09/06 08:41:15;;;;;;;3.70;3.40;;;20.00;99.90;;;;;;5067330;28;20180;-82
2023/09/06 08:43:44;;;;;;;3.70;3.30;;;20.10;99.90;;;;;;5069110;28;20255;-79
2023/09/06 08:46:27;;;;;;;3.17;3.07;;;20.10;99.90;;;;;;5063213;28;20172;-81
2023/09/06 08:48:55;;;;;;;3.43;3.23;;;20.20;99.90;;;;;;5059763;28;20258;-82
2023/09/06 08:51:22;;;;;;;3.83;3.47;;;20.20;99.90;;;;;;5067071;28;20226;-81
2023/09/06 08:53:48;;;;;;;3.90;3.60;;;20.20;99.90;;;;;;5056628;28;20585;-83
2023/09/06 08:56:17;;;;;;;4.20;3.33;;;20.30;99.90;;;;;;5057052;28;20199;-82
2023/09/06 08:58:44;;;;;;;3.30;3.10;;;20.30;99.90;;;;;;5068393;28;20195;-79
2023/09/06 09:01:09;;;;;;;3.37;3.23;;;20.40;99.90;;;;;;5067712;28;20164;-87
2023/09/06 09:03:35;;;;;;;4.33;3.30;;;20.50;99.90;;;;;;5057359;28;20236;-86
2023/09/06 09:06:09;;;;;;;3.73;3.50;;;20.60;99.90;;;;;;5057067;28;20256;-84
2023/09/06 09:08:35;;;;;;;7.00;5.20;;;20.70;99.90;;;;;;5058643;28;20202;-83
2023/09/06 09:11:19;;;;;;;3.73;3.43;;;20.80;99.90;;;;;;5073770;28;20164;-85
2023/09/06 09:13:45;;;;;;;3.10;3.00;;;20.90;99.90;;;;;;5057863;28;20183;-85
2023/09/06 09:16:16;;;;;;;5.47;4.90;;;21.00;99.90;;;;;;5057690;28;20175;-85
2023/09/06 09:18:44;;;;;;;8.20;5.87;;;21.10;99.90;;;;;;5066426;28;20215;-82
2023/09/06 09:21:13;;;;;;;5.50;4.10;;;21.10;99.90;;;;;;5076441;28;20180;-85
2023/09/06 09:23:46;;;;;;;5.07;4.57;;;21.20;99.90;;;;;;5064630;28;20214;-83
2023/09/06 09:26:13;;;;;;;4.10;3.70;;;21.30;99.90;;;;;;5061963;28;20175;-86
2023/09/06 09:28:42;;;;;;;4.00;3.70;;;21.40;99.90;;;;;;5069091;28;20576;-86
2023/09/06 09:31:15;;;;;;;3.50;3.20;;;21.40;99.90;;;;;;5061274;28;20172;-86
2023/09/06 09:33:47;;;;;;;3.43;3.10;;;21.40;99.90;;;;;;5070272;28;20172;-86
2023/09/06 09:36:17;;;;;;;3.90;3.60;;;21.40;99.90;;;;;;5062906;28;20167;-84
2023/09/06 09:38:52;;;;;;;3.30;3.10;;;21.50;99.90;;;;;;5056929;28;20220;-86
2023/09/06 09:41:19;;;;;;;3.40;3.20;;;21.60;99.90;;;;;;5055222;28;20254;-84
2023/09/06 09:43:45;;;;;;;3.20;3.07;;;21.60;99.90;;;;;;5056862;28;20168;-85
2023/09/06 09:46:11;;;;;;;3.27;3.07;;;21.70;99.90;;;;;;5056751;28;20530;-85
2023/09/06 09:48:39;;;;;;;3.10;3.00;;;21.70;99.90;;;;;;5056426;28;20623;-85
2023/09/06 09:51:10;;;;;;;3.47;3.17;;;21.70;99.90;;;;;;5056537;28;20513;-85
2023/09/06 09:53:39;;;;;;;3.60;3.40;;;21.80;99.90;;;;;;5057038;28;20171;-85
2023/09/06 09:56:06;;;;;;;3.10;2.90;;;21.80;99.90;;;;;;5055947;28;20371;-85
2023/09/06 09:58:34;;;;;;;9.33;3.57;;;21.90;99.90;;;;;;5055766;28;20195;-86
2023/09/06 10:01:01;;;;;;;3.17;2.97;;;21.90;99.90;;;;;;5057094;28;20164;-86
2023/09/06 10:03:28;;;;;;;3.33;3.10;;;22.00;99.90;;;;;;5056089;28;20650;-85
2023/09/06 10:05:56;;;;;;;4.43;4.10;;;22.00;99.90;;;;;;5056007;28;20165;-85
2023/09/06 10:08:24;;;;;;;4.13;3.90;;;22.00;99.90;;;;;;5056094;28;20172;-84
2023/09/06 10:10:51;;;;;;;3.87;3.60;;;21.90;99.90;;;;;;5056038;28;20222;-82
2023/09/06 10:13:16;;;;;;;3.97;3.47;;;21.90;99.90;;;;;;5055657;28;20222;-84
2023/09/06 10:15:43;;;;;;;6.83;3.90;;;21.80;99.90;;;;;;5056066;28;20172;-86
2023/09/06 10:18:09;;;;;;;4.57;4.17;;;21.80;99.90;;;;;;5055822;28;20172;-86
2023/09/06 10:20:39;;;;;;;4.40;3.60;;;21.80;99.90;;;;;;5057947;28;20229;-84
2023/09/06 10:23:06;;;;;;;3.43;3.23;;;21.90;99.90;;;;;;5055424;28;20214;-83
2023/09/06 10:25:37;;;;;;;3.93;3.53;;;21.80;99.90;;;;;;5055565;28;20327;-78
2023/09/06 10:28:03;;;;;;;3.27;2.97;;;22.00;99.90;;;;;;5055191;28;20698;-80
2023/09/06 10:30:51;;;;;;;3.30;3.10;;;22.10;99.90;;;;;;5054995;28;20656;-80
2023/09/06 10:33:31;;;;;;;3.70;3.40;;;22.20;99.90;;;;;;5055233;28;20163;-83
2023/09/06 10:36:05;;;;;;;3.50;3.30;;;22.30;99.90;;;;;;5054437;28;20168;-81
2023/09/06 10:38:35;;;;;;;3.23;3.03;;;22.20;99.90;;;;;;5054785;28;20227;-84
2023/09/06 10:41:05;;;;;;;3.60;3.40;;;22.20;99.90;;;;;;5053858;28;20176;-86
2023/09/06 10:43:53;;;;;;;3.87;2.90;;;22.20;99.90;;;;;;5054292;28;20180;-86
2023/09/06 10:46:18;;;;;;;3.60;3.30;;;22.30;99.90;;;;;;5068627;28;20166;-85
2023/09/06 10:49:23;;;;;;;4.53;3.27;;;22.40;99.90;;;;;;5064404;28;20212;-85
2023/09/06 10:51:56;;;;;;;3.63;3.33;;;22.40;99.90;;;;;;5064245;28;20146;-82
2023/09/06 10:54:34;;;;;;;3.10;2.90;;;22.50;99.90;;;;;;5069829;28;20180;-84
2023/09/06 10:57:10;;;;;;;3.37;3.17;;;22.50;99.90;;;;;;5072028;28;20171;-84
2023/09/06 10:59:37;;;;;;;2.88;2.78;;;22.60;99.90;;;;;;5069561;28;20257;-85
2023/09/06 11:02:07;;;;;;;3.03;2.83;;;22.60;99.90;;;;;;5056415;28;20168;-86
2023/09/06 11:04:33;;;;;;;2.83;2.63;;;22.60;99.90;;;;;;5057812;28;20187;-83
2023/09/06 11:07:04;;;;;;;2.70;2.50;;;22.60;99.90;;;;;;5062377;28;20180;-80
2023/09/06 11:09:31;;;;;;;2.75;2.55;;;22.70;99.90;;;;;;5061058;28;20159;-79
2023/09/06 11:11:58;;;;;;;2.42;2.33;;;22.80;99.90;;;;;;5057794;28;20639;-80
2023/09/06 11:14:29;;;;;;;3.00;2.80;;;22.90;99.90;;;;;;5054682;28;20266;-80
2023/09/06 11:16:55;;;;;;;2.60;2.50;;;22.90;99.90;;;;;;5053156;28;20180;-80
2023/09/06 11:19:29;;;;;;;2.88;2.42;;;23.00;99.90;;;;;;5054460;28;20230;-80
2023/09/06 11:22:09;;;;;;;2.78;2.60;;;23.00;99.90;;;;;;5055379;28;20180;-81
2023/09/06 11:24:36;;;;;;;3.17;2.90;;;23.10;99.90;;;;;;5053978;28;20634;-79
2023/09/06 11:27:20;;;;;;;2.75;2.55;;;23.10;99.90;;;;;;5056266;28;20635;-79
2023/09/06 11:29:57;;;;;;;2.72;2.55;;;23.30;99.90;;;;;;5061034;28;20195;-80
2023/09/06 11:32:23;;;;;;;3.88;3.60;;;23.40;99.90;;;;;;5056175;28;20167;-82
2023/09/06 11:34:49;;;;;;;2.80;2.70;;;23.40;99.90;;;;;;5054802;28;20587;-80
2023/09/06 11:37:16;;;;;;;4.85;3.20;;;23.30;99.90;;;;;;5054845;28;20623;-84
2023/09/06 11:39:46;;;;;;;3.40;3.10;;;23.30;99.90;;;;;;5055196;28;20223;-83
2023/09/06 11:42:15;;;;;;;2.70;2.60;;;23.40;99.90;;;;;;5061749;28;20233;-80
2023/09/06 11:44:47;;;;;;;2.80;2.60;;;23.30;99.90;;;;;;5058697;28;20176;-81
2023/09/06 11:47:23;;;;;;;3.58;3.10;;;23.30;99.90;;;;;;5055046;28;20650;-85
2023/09/06 11:49:49;;;;;;;3.35;3.15;;;23.30;99.90;;;;;;5054716;28;20198;-85
2023/09/06 11:52:18;;;;;;;3.13;2.88;;;23.40;99.90;;;;;;5053352;28;20713;-84
2023/09/06 11:54:49;;;;;;;3.13;2.97;;;23.50;99.90;;;;;;5053148;28;20237;-84
2023/09/06 11:57:30;;;;;;;3.10;2.90;;;23.50;99.90;;;;;;5053802;28;20202;-84
2023/09/06 12:00:00;;;;;;;3.33;3.05;;;23.60;99.90;;;;;;5053954;28;20199;-85
2023/09/06 12:02:33;;;;;;;4.72;2.88;;;23.60;99.90;;;;;;5054026;28;20164;-86
2023/09/06 12:05:01;;;;;;;5.72;4.95;;;23.70;99.90;;;;;;5054994;28;20644;-86
2023/09/06 12:07:27;;;;;;;5.30;3.92;;;23.70;99.90;;;;;;5054702;28;20183;-83
2023/09/06 12:09:56;;;;;;;3.03;2.92;;;23.90;99.90;;;;;;5054707;28;20175;-84
2023/09/06 12:12:22;;;;;;;2.60;2.50;;;23.90;99.90;;;;;;5054519;28;20676;-84
2023/09/06 12:14:48;;;;;;;4.88;2.80;;;23.90;99.90;;;;;;5054064;28;20195;-83
2023/09/06 12:17:14;;;;;;;2.65;2.45;;;23.90;99.90;;;;;;5054683;28;20180;-82
2023/09/06 12:19:39;;;;;;;3.70;3.50;;;23.90;99.90;;;;;;5057331;28;20204;-81
2023/09/06 12:22:05;;;;;;;3.22;3.03;;;23.90;99.90;;;;;;5056078;28;20172;-81
2023/09/06 12:24:33;;;;;;;3.17;2.88;;;23.90;99.90;;;;;;5057820;28;20206;-81
2023/09/06 12:27:00;;;;;;;2.85;2.60;;;24.00;99.90;;;;;;5067274;28;20164;-84
2023/09/06 12:29:26;;;;;;;2.90;2.70;;;24.00;99.90;;;;;;5058932;28;20195;-84
2023/09/06 12:31:52;;;;;;;2.38;2.28;;;24.00;99.70;;;;;;5057821;28;20195;-85
2023/09/06 12:34:18;;;;;;;2.63;2.50;;;24.00;98.80;;;;;;5057454;28;20666;-85
2023/09/06 12:36:44;;;;;;;3.10;2.90;;;24.10;99.30;;;;;;5077221;28;20180;-85
2023/09/06 12:39:11;;;;;;;2.80;2.60;;;24.10;99.60;;;;;;5062717;28;20227;-86
2023/09/06 12:41:37;;;;;;;2.38;2.28;;;23.90;99.60;;;;;;5058227;28;20191;-84
2023/09/06 12:44:03;;;;;;;2.70;2.53;;;24.20;99.80;;;;;;5066148;28;20153;-84
2023/09/06 12:46:29;;;;;;;2.50;2.40;;;24.10;99.90;;;;;;5064273;28;20175;-83
2023/09/06 12:48:55;;;;;;;2.40;2.30;;;23.90;99.50;;;;;;5058308;28;20184;-85
2023/09/06 12:51:20;;;;;;;2.60;2.50;;;23.90;99.70;;;;;;5058528;28;20175;-85
2023/09/06 12:53:46;;;;;;;2.83;2.63;;;23.90;99.80;;;;;;5057774;28;20168;-84